createdAt,value
2022-08-23T00:00:12.862Z,100924.69
2022-08-23T00:02:42.475Z,100925.50
2022-08-23T00:05:12.037Z,100927.97
2022-08-23T00:07:43.595Z,100933.88
2022-08-23T00:10:13.890Z,100920.03
2022-08-23T00:12:42.642Z,100916.44
2022-08-23T00:15:13.682Z,100921.25
2022-08-23T00:17:42.331Z,100930.50
2022-08-23T00:20:13.914Z,100924.50
2022-08-23T00:22:43.791Z,100928.66
2022-08-23T00:25:13.871Z,100926.00
2022-08-23T00:27:42.398Z,100923.38
2022-08-23T00:30:12.478Z,100922.47
2022-08-23T00:32:41.646Z,100921.63
2022-08-23T00:35:12.936Z,100913.66
2022-08-23T00:38:30.382Z,100919.56
2022-08-23T00:40:47.210Z,100917.00
2022-08-23T00:43:35.324Z,100922.13
2022-08-23T00:46:27.087Z,100921.59
2022-08-23T00:48:56.837Z,100925.41
2022-08-23T00:51:31.721Z,100922.75
2022-08-23T00:54:13.816Z,100928.66
2022-08-23T00:56:41.980Z,100928.50
2022-08-23T00:59:10.218Z,100923.38
2022-08-23T01:01:38.848Z,100923.97
2022-08-23T01:04:07.187Z,100922.81
2022-08-23T01:06:41.710Z,100925.19
2022-08-23T01:09:15.193Z,100916.19
2022-08-23T01:11:49.495Z,100924.06
2022-08-23T01:14:28.631Z,100923.97
2022-08-23T01:17:01.868Z,100922.72
2022-08-23T01:19:37.716Z,100922.81
2022-08-23T01:22:13.071Z,100911.16
2022-08-23T01:25:06.351Z,100934.38
2022-08-23T01:27:38.394Z,100932.59
2022-08-23T01:30:11.378Z,100933.19
2022-08-23T01:32:45.642Z,100944.59
2022-08-23T01:35:14.266Z,100921.53
2022-08-23T01:37:42.821Z,100936.56
2022-08-23T01:40:16.138Z,100933.78
2022-08-23T01:42:44.653Z,100931.25
2022-08-23T01:45:15.433Z,100937.06
2022-08-23T01:47:43.808Z,100932.81
2022-08-23T01:50:15.061Z,100933.53
2022-08-23T01:52:46.788Z,100933.25
2022-08-23T01:55:19.361Z,100930.59
2022-08-23T01:57:51.318Z,100928.66
2022-08-23T02:00:26.040Z,100944.88
2022-08-23T02:02:53.934Z,100936.16
2022-08-23T02:05:22.584Z,100912.97
2022-08-23T02:07:50.661Z,100937.50
2022-08-23T02:10:21.810Z,100934.94
2022-08-23T02:12:51.400Z,100940.78
2022-08-23T02:15:21.505Z,100931.91
2022-08-23T02:17:49.578Z,100949.13
2022-08-23T02:20:20.152Z,100941.06
2022-08-23T02:22:50.725Z,100940.78
2022-08-23T02:25:20.436Z,100948.09
2022-08-23T02:27:48.442Z,100943.59
2022-08-23T02:30:17.277Z,100951.63
2022-08-23T02:32:45.210Z,100946.34
2022-08-23T02:35:15.910Z,100938.38
2022-08-23T02:37:43.942Z,100945.78
2022-08-23T02:40:12.764Z,100943.63
2022-08-23T02:42:44.704Z,100941.16
2022-08-23T02:45:13.489Z,100948.53
2022-08-23T02:47:46.750Z,100947.56
2022-08-23T02:50:20.360Z,100958.56
2022-08-23T02:52:55.033Z,100954.22
2022-08-23T02:55:23.843Z,100953.06
2022-08-23T02:57:53.374Z,100950.31
2022-08-23T03:00:22.495Z,100935.78
2022-08-23T03:02:51.906Z,100954.81
2022-08-23T03:05:20.691Z,100952.09
2022-08-23T03:07:48.682Z,100957.78
2022-08-23T03:10:17.437Z,100957.56
2022-08-23T03:12:55.320Z,100960.13
2022-08-23T03:15:23.249Z,100960.00
2022-08-23T03:17:51.652Z,100962.53
2022-08-23T03:20:19.777Z,100961.47
2022-08-23T03:22:55.038Z,100955.38
2022-08-23T03:25:27.567Z,100955.47
2022-08-23T03:28:08.364Z,100957.75
2022-08-23T03:30:40.750Z,100959.00
2022-08-23T03:33:10.282Z,100955.47
2022-08-23T03:35:38.553Z,100964.59
2022-08-23T03:38:08.265Z,100952.13
2022-08-23T03:40:36.651Z,100968.63
2022-08-23T03:43:05.865Z,100970.19
2022-08-23T03:45:35.849Z,100973.63
2022-08-23T03:48:04.428Z,100970.84
2022-08-23T03:50:35.323Z,100973.41
2022-08-23T03:53:03.461Z,100955.16
2022-08-23T03:55:34.839Z,100975.84
2022-08-23T03:58:10.999Z,100976.75
2022-08-23T04:00:40.453Z,100980.97
2022-08-23T04:03:10.017Z,100980.97
2022-08-23T04:05:54.239Z,100982.53
2022-08-23T04:08:31.822Z,100980.69
2022-08-23T04:11:03.311Z,100984.00
2022-08-23T04:13:31.786Z,100984.38
2022-08-23T04:16:05.071Z,100981.75
2022-08-23T04:18:34.002Z,100981.59
2022-08-23T04:21:06.026Z,100968.81
2022-08-23T04:23:35.098Z,100985.53
2022-08-23T04:26:03.051Z,100997.72
2022-08-23T04:28:34.478Z,100991.03
2022-08-23T04:31:05.581Z,100995.56
2022-08-23T04:33:35.711Z,100991.47
2022-08-23T04:36:09.936Z,101005.19
2022-08-23T04:38:38.397Z,101002.28
2022-08-23T04:41:25.844Z,101003.03
2022-08-23T04:43:56.850Z,100992.75
2022-08-23T04:46:33.409Z,101001.72
2022-08-23T04:49:02.839Z,101008.78
2022-08-23T04:51:33.164Z,101009.47
2022-08-23T04:54:01.522Z,101003.84
2022-08-23T04:56:45.382Z,101019.19
2022-08-23T04:59:21.481Z,101020.41
2022-08-23T05:01:51.518Z,101009.16
2022-08-23T05:04:19.926Z,101012.47
2022-08-23T05:06:48.227Z,101009.25
2022-08-23T05:09:20.818Z,101018.38
2022-08-23T05:11:50.440Z,101019.25
2022-08-23T05:14:19.427Z,101021.13
2022-08-23T05:16:47.699Z,101021.03
2022-08-23T05:19:18.010Z,101029.09
2022-08-23T05:21:48.397Z,101019.47
2022-08-23T05:24:16.868Z,101027.81
2022-08-23T05:26:47.531Z,101042.44
2022-08-23T05:29:15.624Z,101039.91
2022-08-23T05:31:50.616Z,101028.50
2022-08-23T05:34:22.967Z,101040.88
2022-08-23T05:36:59.044Z,101042.63
2022-08-23T05:39:36.519Z,101039.50
2022-08-23T05:42:08.225Z,101053.25
2022-08-23T05:44:37.277Z,101059.25
2022-08-23T05:47:10.295Z,101045.88
2022-08-23T05:49:48.130Z,101048.72
2022-08-23T05:52:16.159Z,101044.72
2022-08-23T05:54:45.114Z,101049.50
2022-08-23T05:57:45.361Z,101038.41
2022-08-23T06:00:15.127Z,101050.50
2022-08-23T06:02:52.651Z,101056.97
2022-08-23T06:05:22.778Z,101061.78
2022-08-23T06:07:51.842Z,101059.34
2022-08-23T06:10:22.593Z,101066.19
2022-08-23T06:13:03.845Z,101061.31
2022-08-23T06:15:33.425Z,101072.72
2022-08-23T06:18:02.478Z,101066.31
2022-08-23T06:20:32.937Z,101062.25
2022-08-23T06:23:03.870Z,101066.13
2022-08-23T06:25:32.262Z,101061.69
2022-08-23T06:28:15.016Z,101062.63
2022-08-23T06:30:43.587Z,101067.91
2022-08-23T06:33:13.935Z,101072.97
2022-08-23T06:36:12.133Z,101077.66
2022-08-23T06:38:58.339Z,101082.03
2022-08-23T06:42:00.705Z,101081.34
2022-08-23T06:44:31.593Z,101077.81
2022-08-23T06:47:13.807Z,101058.91
2022-08-23T06:49:41.925Z,101080.88
2022-08-23T06:52:49.888Z,101075.97
2022-08-23T06:55:36.767Z,101080.50
2022-08-23T06:58:16.712Z,101079.69
2022-08-23T07:01:35.134Z,101081.78
2022-08-23T07:04:30.653Z,101083.56
2022-08-23T07:07:16.879Z,101077.56
2022-08-23T07:09:46.308Z,101077.41
2022-08-23T07:12:14.478Z,101066.09
2022-08-23T07:14:44.234Z,101069.78
2022-08-23T07:17:14.411Z,101070.28
2022-08-23T07:19:44.061Z,101064.47
2022-08-23T07:22:12.372Z,101078.66
2022-08-23T07:24:40.526Z,101078.59
2022-08-23T07:27:10.060Z,101073.06
2022-08-23T07:30:16.461Z,101077.34
2022-08-23T07:32:46.386Z,101067.34
2022-08-23T07:35:22.705Z,101075.13
2022-08-23T07:37:53.522Z,101078.81
2022-08-23T07:40:22.161Z,101093.03
2022-08-23T07:42:58.661Z,101095.59
2022-08-23T07:45:27.610Z,101099.13
2022-08-23T07:48:02.241Z,101093.41
2022-08-23T07:50:34.962Z,101103.25
2022-08-23T07:53:04.352Z,101096.78
2022-08-23T07:55:32.402Z,101105.91
2022-08-23T07:58:20.471Z,101101.09
2022-08-23T08:00:56.942Z,101099.81
2022-08-23T08:03:40.203Z,101106.25
2022-08-23T08:06:17.356Z,101105.28
2022-08-23T08:08:46.544Z,101108.81
2022-08-23T08:11:20.352Z,101109.91
2022-08-23T08:13:51.229Z,101108.81
2022-08-23T08:16:23.291Z,101105.19
2022-08-23T08:18:56.137Z,101100.94
2022-08-23T08:21:42.933Z,101102.84
2022-08-23T08:24:29.916Z,101104.63
2022-08-23T08:27:14.938Z,101108.81
2022-08-23T08:29:53.000Z,101112.34
2022-08-23T08:32:23.775Z,101101.44
2022-08-23T08:34:54.776Z,101109.59
2022-08-23T08:37:24.866Z,101102.72
2022-08-23T08:39:54.438Z,101101.88
2022-08-23T08:42:59.920Z,101090.34
2022-08-23T08:45:42.305Z,101109.47
2022-08-23T08:48:25.816Z,101105.34
2022-08-23T08:50:59.933Z,101109.41
2022-08-23T08:53:39.389Z,101095.25
2022-08-23T08:56:21.544Z,101098.63
2022-08-23T08:59:02.472Z,101104.03
2022-08-23T09:01:36.611Z,101099.66
2022-08-23T09:04:05.569Z,101093.63
2022-08-23T09:06:43.805Z,101086.78
2022-08-23T09:09:22.104Z,101109.25
2022-08-23T09:12:06.554Z,101102.78
2022-08-23T09:15:22.601Z,101103.06
2022-08-23T09:17:57.726Z,101100.84
2022-08-23T09:20:33.098Z,101100.00
2022-08-23T09:23:12.312Z,101103.69
2022-08-23T09:25:42.481Z,101107.22
2022-08-23T09:28:17.227Z,101096.97
2022-08-23T09:30:52.965Z,101105.09
2022-08-23T09:33:26.241Z,101112.09
2022-08-23T09:36:08.440Z,101108.00
2022-08-23T09:38:52.062Z,101105.69
2022-08-23T09:41:27.040Z,101098.91
2022-08-23T09:44:02.339Z,101092.94
2022-08-23T09:46:35.869Z,101094.94
2022-08-23T09:49:25.420Z,101088.75
2022-08-23T09:51:57.684Z,101080.41
2022-08-23T09:54:31.282Z,101077.69
2022-08-23T09:57:02.660Z,101069.16
2022-08-23T09:59:41.236Z,101075.72
2022-08-23T10:02:24.185Z,101080.38
2022-08-23T10:05:03.032Z,101081.81
2022-08-23T10:07:42.430Z,101066.97
2022-08-23T10:10:21.299Z,101069.41
2022-08-23T10:12:49.566Z,101081.72
2022-08-23T10:15:19.063Z,101066.53
2022-08-23T10:17:59.296Z,101077.72
2022-08-23T10:20:48.614Z,101065.44
2022-08-23T10:23:35.705Z,101061.50
2022-08-23T10:26:04.069Z,101075.50
2022-08-23T10:29:04.941Z,101053.56
2022-08-23T10:31:44.418Z,101072.13
2022-08-23T10:34:25.741Z,101060.66
2022-08-23T10:37:14.383Z,101067.25
2022-08-23T10:39:48.070Z,101062.75
2022-08-23T10:42:29.239Z,101065.50
2022-08-23T10:45:05.328Z,101057.06
2022-08-23T10:47:38.931Z,101055.84
2022-08-23T10:50:13.586Z,101039.72
2022-08-23T10:52:58.737Z,101064.91
2022-08-23T10:55:44.216Z,101058.66
2022-08-23T10:58:17.955Z,101060.31
2022-08-23T11:00:49.397Z,101063.31
2022-08-23T11:03:29.078Z,101053.81
2022-08-23T11:06:42.053Z,101041.78
2022-08-23T11:09:48.838Z,101047.88
2022-08-23T11:12:27.230Z,101039.38
2022-08-23T11:15:20.577Z,101050.13
2022-08-23T11:18:12.312Z,101044.28
2022-08-23T11:21:33.655Z,101048.56
2022-08-23T11:24:49.347Z,101039.69
2022-08-23T11:27:34.523Z,101047.63
2022-08-23T11:30:43.291Z,101046.56
2022-08-23T11:33:22.739Z,101043.09
2022-08-23T11:35:53.496Z,101029.34
2022-08-23T11:38:52.223Z,101031.91
2022-08-23T11:41:26.923Z,101045.09
2022-08-23T11:44:30.272Z,101038.25
2022-08-23T11:47:07.378Z,101034.97
2022-08-23T11:50:19.387Z,101042.28
2022-08-23T11:53:15.303Z,101034.09
2022-08-23T11:56:31.242Z,101032.91
2022-08-23T11:59:15.600Z,101030.31
2022-08-23T12:01:45.539Z,101035.53
2022-08-23T12:04:31.738Z,101039.47
2022-08-23T12:07:05.743Z,101036.50
2022-08-23T12:09:57.896Z,101037.44
2022-08-23T12:12:39.996Z,101036.41
2022-08-23T12:15:12.044Z,101038.19
2022-08-23T12:18:11.985Z,101032.66
2022-08-23T12:20:41.617Z,101033.53
2022-08-23T12:23:18.222Z,101022.81
2022-08-23T12:25:46.665Z,101003.63
2022-08-23T12:28:44.223Z,101014.81
2022-08-23T12:31:34.931Z,101021.19
2022-08-23T12:34:25.233Z,101025.63
2022-08-23T12:37:07.650Z,101013.84
2022-08-23T12:39:40.914Z,101018.31
2022-08-23T12:42:18.306Z,101028.31
2022-08-23T12:44:59.664Z,101018.69
2022-08-23T12:47:27.972Z,101015.56
2022-08-23T12:50:00.371Z,101013.53
2022-08-23T12:52:31.450Z,101016.31
2022-08-23T12:54:59.849Z,101005.63
2022-08-23T12:57:38.416Z,101011.06
2022-08-23T13:00:20.430Z,101013.88
2022-08-23T13:02:59.316Z,101010.19
2022-08-23T13:05:38.012Z,101010.34
2022-08-23T13:08:10.292Z,101014.34
2022-08-23T13:10:41.539Z,101008.31
2022-08-23T13:13:14.810Z,101002.81
2022-08-23T13:15:52.198Z,100998.47
2022-08-23T13:18:33.315Z,101002.03
2022-08-23T13:21:28.888Z,100993.22
2022-08-23T13:24:02.518Z,100997.69
2022-08-23T13:26:38.566Z,100993.31
2022-08-23T13:29:23.406Z,101001.72
2022-08-23T13:32:03.478Z,100999.94
2022-08-23T13:34:40.302Z,100993.66
2022-08-23T13:37:26.715Z,100998.00
2022-08-23T13:39:58.378Z,100995.72
2022-08-23T13:42:35.094Z,100998.53
2022-08-23T13:45:10.411Z,100995.19
2022-08-23T13:47:39.835Z,100998.97
2022-08-23T13:50:17.086Z,101000.56
2022-08-23T13:53:11.547Z,100992.44
2022-08-23T13:55:42.324Z,100978.59
2022-08-23T13:58:13.825Z,100983.88
2022-08-23T14:00:45.869Z,100982.25
2022-08-23T14:03:26.145Z,100978.41
2022-08-23T14:05:54.587Z,100981.19
2022-08-23T14:08:23.003Z,100980.25
2022-08-23T14:10:51.365Z,100984.72
2022-08-23T14:13:24.376Z,100983.16
2022-08-23T14:16:32.924Z,100980.53
2022-08-23T14:21:31.493Z,100986.22
2022-08-23T14:23:59.387Z,100975.44
2022-08-23T14:26:27.531Z,100969.13
2022-08-23T14:28:55.477Z,100976.16
2022-08-23T14:31:33.257Z,100978.03
2022-08-23T14:34:02.746Z,100976.97
2022-08-23T14:36:30.925Z,100978.56
2022-08-23T14:38:58.881Z,100981.06
2022-08-23T14:41:28.640Z,100976.78
2022-08-23T14:43:56.736Z,100971.75
2022-08-23T14:46:28.058Z,100960.13
2022-08-23T14:48:58.282Z,100968.75
2022-08-23T14:51:32.183Z,100967.97
2022-08-23T14:54:01.075Z,100968.69
2022-08-23T14:56:33.655Z,100970.66
2022-08-23T14:59:01.763Z,100969.72
2022-08-23T15:01:29.780Z,100969.59
2022-08-23T15:04:00.314Z,100974.84
2022-08-23T15:06:29.866Z,100973.28
2022-08-23T15:08:57.872Z,100976.78
2022-08-23T15:14:13.834Z,100958.53
2022-08-23T15:16:41.892Z,100963.03
2022-08-23T15:19:09.918Z,100961.38
2022-08-23T15:21:39.340Z,100966.50
2022-08-23T15:24:09.609Z,100966.22
2022-08-23T15:26:37.823Z,100958.06
2022-08-23T15:31:50.301Z,100963.38
2022-08-23T15:34:21.972Z,100958.97
2022-08-23T15:36:51.799Z,100966.75
2022-08-23T15:39:19.706Z,100972.16
2022-08-23T15:41:47.721Z,100962.78
2022-08-23T15:44:15.574Z,100965.41
2022-08-23T15:46:50.031Z,100960.06
2022-08-23T15:49:19.673Z,100957.50
2022-08-23T15:52:13.815Z,100957.66
2022-08-23T15:54:46.812Z,100953.28
2022-08-23T15:57:17.625Z,100954.97
2022-08-23T15:59:46.244Z,100954.78
2022-08-23T16:02:14.328Z,100953.63
2022-08-23T16:04:42.376Z,100949.06
2022-08-23T16:07:14.277Z,100963.56
2022-08-23T16:09:43.652Z,100967.69
2022-08-23T16:12:11.672Z,100960.72
2022-08-23T16:14:40.283Z,100965.84
2022-08-23T16:17:16.036Z,100964.97
2022-08-23T16:19:50.514Z,100969.00
2022-08-23T16:22:18.629Z,100961.19
2022-08-23T16:24:47.974Z,100963.63
2022-08-23T16:27:16.054Z,100961.78
2022-08-23T16:29:52.821Z,100957.34
2022-08-23T16:32:22.901Z,100964.13
2022-08-23T16:34:54.361Z,100966.72
2022-08-23T16:37:22.269Z,100959.69
2022-08-23T16:39:53.071Z,100965.66
2022-08-23T16:42:22.269Z,100956.97
2022-08-23T16:44:53.187Z,100958.59
2022-08-23T16:47:21.298Z,100956.84
2022-08-23T16:49:55.719Z,100951.63
2022-08-23T16:52:28.773Z,100959.28
2022-08-23T16:55:12.752Z,100954.78
2022-08-23T16:57:41.935Z,100956.34
2022-08-23T17:00:16.301Z,100958.03
2022-08-23T17:02:44.846Z,100956.97
2022-08-23T17:05:19.944Z,100950.81
2022-08-23T17:07:48.116Z,100954.81
2022-08-23T17:10:19.392Z,100948.59
2022-08-23T17:12:51.033Z,100958.09
2022-08-23T17:15:23.507Z,100959.56
2022-08-23T17:17:51.749Z,100959.38
2022-08-23T17:20:22.360Z,100959.22
2022-08-23T17:22:50.875Z,100965.88
2022-08-23T17:25:21.124Z,100965.72
2022-08-23T17:27:51.116Z,100970.72
2022-08-23T17:30:22.168Z,100968.81
2022-08-23T17:35:55.848Z,100978.72
2022-08-23T17:41:56.735Z,100872.34
2022-08-23T17:44:42.664Z,100953.06
2022-08-23T17:47:39.244Z,100916.88
2022-08-23T17:50:14.941Z,100945.81
2022-08-23T17:52:45.349Z,100993.69
2022-08-23T17:55:25.612Z,101002.22
2022-08-23T17:58:04.423Z,100999.41
2022-08-23T18:00:45.799Z,100996.41
2022-08-23T18:03:40.160Z,100975.69
2022-08-23T18:06:28.181Z,101006.06
2022-08-23T18:09:08.723Z,101000.88
2022-08-23T18:11:44.575Z,100976.69
2022-08-23T18:14:31.625Z,101008.94
2022-08-23T18:16:59.666Z,101006.94
2022-08-23T18:19:27.548Z,101009.34
2022-08-23T18:21:59.530Z,101007.34
2022-08-23T18:24:30.288Z,101022.63
2022-08-23T18:27:19.621Z,101018.06
2022-08-23T18:30:08.545Z,101018.56
2022-08-23T18:32:36.929Z,101012.28
2022-08-23T18:35:11.493Z,101022.41
2022-08-23T18:37:44.785Z,100894.44
2022-08-23T18:40:14.157Z,101035.63
2022-08-23T18:42:47.445Z,101027.72
2022-08-23T18:45:25.580Z,101034.25
2022-08-23T18:47:53.552Z,101032.19
2022-08-23T18:50:26.925Z,101041.47
2022-08-23T18:52:55.318Z,101038.72
2022-08-23T18:55:25.286Z,101040.06
2022-08-23T18:57:57.753Z,101037.28
2022-08-23T19:00:39.739Z,101044.78
2022-08-23T19:03:09.040Z,101056.50
2022-08-23T19:05:41.969Z,101044.66
2022-08-23T19:08:16.266Z,101056.84
2022-08-23T19:10:47.430Z,101060.03
2022-08-23T19:13:19.902Z,101065.00
2022-08-23T19:15:51.874Z,101070.81
2022-08-23T19:18:24.304Z,101072.38
2022-08-23T19:20:52.601Z,101072.97
2022-08-23T19:23:23.535Z,101071.94
2022-08-23T19:25:56.499Z,101062.78
2022-08-23T19:28:26.905Z,101088.00
2022-08-23T19:30:58.808Z,101083.25
2022-08-23T19:33:34.033Z,101097.81
2022-08-23T19:36:05.224Z,101093.25
2022-08-23T19:38:37.973Z,101096.63
2022-08-23T19:41:06.673Z,101100.69
2022-08-23T19:43:40.928Z,101099.59
2022-08-23T19:46:15.883Z,101102.00
2022-08-23T19:48:46.207Z,101099.19
2022-08-23T19:51:19.713Z,101101.53
2022-08-23T19:54:13.235Z,101104.75
2022-08-23T19:56:44.718Z,101105.50
2022-08-23T19:59:17.924Z,101122.47
2022-08-23T20:01:47.969Z,101108.59
2022-08-23T20:04:17.062Z,101120.41
2022-08-23T20:06:53.289Z,101125.50
2022-08-23T20:09:23.386Z,101108.56
2022-08-23T20:11:53.341Z,101138.25
2022-08-23T20:14:22.526Z,101131.41
2022-08-23T20:16:52.841Z,101131.34
2022-08-23T20:19:22.707Z,101130.47
2022-08-23T20:21:50.961Z,101132.97
2022-08-23T20:24:28.807Z,101139.88
2022-08-23T20:27:06.014Z,101137.78
2022-08-23T20:29:34.114Z,101126.25
2022-08-23T20:32:06.126Z,101146.03
2022-08-23T20:34:37.096Z,101134.69
2022-08-23T20:37:05.864Z,101139.66
2022-08-23T20:39:37.016Z,101136.81
2022-08-23T20:42:08.229Z,101130.72
2022-08-23T20:44:37.553Z,101135.53
2022-08-23T20:47:22.455Z,101138.91
2022-08-23T20:49:56.440Z,101143.19
2022-08-23T20:52:24.156Z,101141.16
2022-08-23T20:54:57.572Z,101141.09
2022-08-23T20:57:25.628Z,101140.94
2022-08-23T20:59:58.821Z,101145.06
2022-08-23T21:02:28.291Z,101146.69
2022-08-23T21:04:57.983Z,101148.28
2022-08-23T21:07:28.038Z,101141.22
2022-08-23T21:09:59.259Z,101141.94
2022-08-23T21:12:35.068Z,101153.91
2022-08-23T21:15:10.913Z,101153.75
2022-08-23T21:17:41.124Z,101160.59
2022-08-23T21:20:19.052Z,101165.63
2022-08-23T21:22:53.189Z,101159.63
2022-08-23T21:25:21.457Z,101162.97
2022-08-23T21:27:52.214Z,101167.34
2022-08-23T21:30:20.389Z,101163.16
2022-08-23T21:32:50.000Z,101157.13
2022-08-23T21:35:18.021Z,101160.47
2022-08-23T21:37:46.079Z,101162.28
2022-08-23T21:40:14.482Z,101163.06
2022-08-23T21:42:42.487Z,101151.91
2022-08-23T21:45:13.284Z,101156.25
2022-08-23T21:48:05.691Z,101155.19
2022-08-23T21:50:33.746Z,101147.34
2022-08-23T21:53:05.082Z,101147.16
2022-08-23T21:55:37.072Z,101149.34
2022-08-23T21:58:07.608Z,101154.97
2022-08-23T22:00:37.946Z,101151.97
2022-08-23T22:03:09.179Z,101157.69
2022-08-23T22:05:42.566Z,101156.44
2022-08-23T22:08:14.373Z,101144.09
2022-08-23T22:10:57.346Z,101147.09
2022-08-23T22:13:28.634Z,101148.06
2022-08-23T22:15:56.924Z,101155.59
2022-08-23T22:18:26.403Z,101153.81
2022-08-23T22:20:55.211Z,101157.72
2022-08-23T22:23:26.733Z,101157.56
2022-08-23T22:25:58.377Z,101153.63
2022-08-23T22:28:31.282Z,101152.66
2022-08-23T22:31:04.764Z,101148.06
2022-08-23T22:33:52.974Z,101161.50
2022-08-23T22:36:23.548Z,101162.22
2022-08-23T22:38:52.680Z,101165.25
2022-08-23T22:41:25.646Z,101162.41
2022-08-23T22:43:56.885Z,101157.03
2022-08-23T22:46:28.947Z,101152.16
2022-08-23T22:48:58.358Z,101160.63
2022-08-23T22:51:28.771Z,101154.47
2022-08-23T22:54:00.232Z,101160.31
2022-08-23T22:56:31.184Z,101156.78
2022-08-23T22:58:59.880Z,101170.38
2022-08-23T23:01:30.517Z,101170.22
2022-08-23T23:04:01.053Z,101167.53
2022-08-23T23:06:29.565Z,101164.69
2022-08-23T23:09:13.794Z,101156.63
2022-08-23T23:11:42.423Z,101163.28
2022-08-23T23:14:12.317Z,101163.19
2022-08-23T23:16:41.076Z,101161.94
2022-08-23T23:19:28.186Z,101154.00
2022-08-23T23:21:58.388Z,101161.56
2022-08-23T23:24:34.877Z,101164.03
2022-08-23T23:27:05.622Z,101160.25
2022-08-23T23:29:34.576Z,101127.78
2022-08-23T23:32:04.707Z,101162.06
2022-08-23T23:34:39.118Z,101160.50
2022-08-23T23:37:07.100Z,101160.66
2022-08-23T23:39:38.395Z,101159.69
2022-08-23T23:42:08.862Z,101164.72
2022-08-23T23:44:36.843Z,101173.81
2022-08-23T23:47:05.678Z,101167.50
2022-08-23T23:49:33.804Z,101176.69
2022-08-23T23:52:05.137Z,101174.66
2022-08-23T23:54:36.034Z,101172.69
2022-08-23T23:57:05.732Z,101170.56
2022-08-23T23:59:33.894Z,101176.56
